Terminal Aerodrome Forecast
Issued by NWS Pocatello, ID

Home | Current Version | Previous Version | Text Only | Print | Product List | Glossary On
Versions: 1 2 3 4 5 6 7 8 9 10 11 12 13 14 15 16
000
FTUS45 KPIH 011700
TAFBYI
TAF
KBYI 011720Z 0118/0218 27015G25KT P6SM SCT030 BKN100
     FM020200 23010KT P6SM SCT200
     FM020800 VRB05KT P6SM SCT200
     FM021600 27011KT P6SM BKN120=

USA.gov is the U.S. government's official web portal to all federal, state and local government web resources and services.